Time;durP1;ratioP1;P1;durP2;ratioP2;P2;SDS_P1;SDS_P2;PMS_P1;PMS_P2;Temp;Humidity;BMP_temperature;BMP_pressure;BME280_temperature;BME280_humidity;BME280_pressure;Samples;Min_cycle;Max_cycle;Signal;HPM_P1;HPM_P2
2024/04/15 04:07:49;;;;;;;0.30;0.30;;;14.80;99.90;;;;;;5314648;21;21158;-62
2024/04/15 04:12:50;;;;;;;0.40;0.40;;;14.80;99.90;;;;;;5284897;21;20302;-62
2024/04/15 04:15:16;;;;;;;1.43;0.50;;;14.80;99.90;;;;;;5280442;27;20435;-62
2024/04/15 04:17:44;;;;;;;0.30;0.30;;;14.70;99.90;;;;;;5280648;27;20235;-62
2024/04/15 04:20:11;;;;;;;0.43;0.43;;;14.60;99.90;;;;;;5280695;27;20253;-62
2024/04/15 04:22:37;;;;;;;0.30;0.30;;;14.60;99.90;;;;;;5280534;27;20451;-62
2024/04/15 04:25:02;;;;;;;0.30;0.30;;;14.60;99.90;;;;;;5280359;27;20489;-62
2024/04/15 04:27:28;;;;;;;0.33;0.33;;;14.60;99.90;;;;;;5280528;27;20314;-62
2024/04/15 04:29:53;;;;;;;0.30;0.30;;;14.50;99.90;;;;;;5280353;27;20224;-62
2024/04/15 04:32:19;;;;;;;0.30;0.30;;;14.50;99.90;;;;;;5280073;27;20827;-62
2024/04/15 04:34:44;;;;;;;0.30;0.30;;;14.50;99.90;;;;;;5279860;27;20569;-62
2024/04/15 04:37:11;;;;;;;2.10;0.60;;;14.40;99.90;;;;;;5278735;27;20607;-62
2024/04/15 04:39:37;;;;;;;0.30;0.30;;;14.40;99.90;;;;;;5280226;27;20322;-62
2024/04/15 04:42:03;;;;;;;0.30;0.30;;;14.40;99.90;;;;;;5278731;27;20426;-61
2024/04/15 04:44:28;;;;;;;0.30;0.30;;;14.30;99.90;;;;;;5280825;27;20226;-63
2024/04/15 04:46:54;;;;;;;0.30;0.30;;;14.30;99.90;;;;;;5280318;27;20732;-62
2024/04/15 04:49:19;;;;;;;0.37;0.37;;;14.30;99.90;;;;;;5279743;27;20238;-62
2024/04/15 04:51:45;;;;;;;0.63;0.63;;;14.30;99.90;;;;;;5277817;27;20698;-62
2024/04/15 04:54:13;;;;;;;0.30;0.20;;;14.30;99.90;;;;;;5280188;27;20269;-62
2024/04/15 04:56:39;;;;;;;0.40;0.40;;;14.30;99.90;;;;;;5281348;27;20234;-61
2024/04/15 04:59:05;;;;;;;0.30;0.30;;;14.30;99.90;;;;;;5314225;26;20505;-62
2024/04/15 05:01:31;;;;;;;0.40;0.40;;;14.30;99.90;;;;;;5311892;27;20790;-61
2024/04/15 05:03:57;;;;;;;0.30;0.30;;;14.20;99.90;;;;;;5312481;27;20691;-62
2024/04/15 05:06:22;;;;;;;0.40;0.40;;;14.20;99.90;;;;;;5313572;26;20285;-61
2024/04/15 05:08:48;;;;;;;0.30;0.30;;;14.20;99.90;;;;;;5313661;26;20895;-63
2024/04/15 05:11:14;;;;;;;0.33;0.33;;;14.20;99.90;;;;;;5312765;27;20696;-62
2024/04/15 05:13:39;;;;;;;0.30;0.30;;;14.20;99.90;;;;;;5313197;26;20252;-62
2024/04/15 05:16:13;;;;;;;0.50;0.50;;;14.20;99.90;;;;;;5310870;26;20276;-62
2024/04/15 05:18:40;;;;;;;0.40;0.40;;;14.20;99.90;;;;;;5311245;26;20323;-63
2024/04/15 05:21:18;;;;;;;0.30;0.30;;;14.20;99.90;;;;;;5310935;26;20499;-62
2024/04/15 05:23:44;;;;;;;0.40;0.40;;;14.20;99.90;;;;;;5308968;27;20955;-62
2024/04/15 05:26:10;;;;;;;0.30;0.30;;;14.20;99.90;;;;;;5310412;26;20445;-62
2024/04/15 05:28:36;;;;;;;0.40;0.40;;;14.20;99.90;;;;;;5310877;27;20749;-63
2024/04/15 05:31:02;;;;;;;0.40;0.40;;;14.20;99.90;;;;;;5312889;26;20536;-62
2024/04/15 05:33:28;;;;;;;0.97;0.97;;;14.20;99.90;;;;;;5313477;27;20563;-62
2024/04/15 05:35:54;;;;;;;0.30;0.30;;;14.20;99.90;;;;;;5312676;26;20230;-66
2024/04/15 05:38:19;;;;;;;0.40;0.40;;;14.20;99.90;;;;;;5313791;26;20437;-62
2024/04/15 05:40:45;;;;;;;0.30;0.30;;;14.20;99.90;;;;;;5313121;27;20233;-65
2024/04/15 05:43:11;;;;;;;0.30;0.30;;;14.30;99.90;;;;;;5311647;27;20264;-63
2024/04/15 05:45:37;;;;;;;0.30;0.30;;;14.20;99.90;;;;;;5313078;26;20215;-63
2024/04/15 05:48:03;;;;;;;0.40;0.40;;;14.20;99.90;;;;;;5312848;27;20855;-63
2024/04/15 05:50:29;;;;;;;0.30;0.30;;;14.20;99.90;;;;;;5304387;26;20550;-62
2024/04/15 05:52:55;;;;;;;0.33;0.33;;;14.30;99.90;;;;;;5298927;27;20583;-63
2024/04/15 05:55:21;;;;;;;0.30;0.30;;;14.30;99.90;;;;;;5311700;26;20218;-63
2024/04/15 05:57:47;;;;;;;0.30;0.30;;;14.30;99.90;;;;;;5310705;26;20469;-63
2024/04/15 06:00:13;;;;;;;0.30;0.30;;;14.30;99.90;;;;;;5311416;26;20622;-63
2024/04/15 06:02:39;;;;;;;0.30;0.30;;;14.30;99.90;;;;;;5311369;26;20226;-63
2024/04/15 06:05:04;;;;;;;0.30;0.30;;;14.30;99.90;;;;;;5312021;26;20496;-63
2024/04/15 06:07:30;;;;;;;0.30;0.30;;;14.30;99.90;;;;;;5312648;26;20539;-62
2024/04/15 06:09:56;;;;;;;0.30;0.30;;;14.40;99.90;;;;;;5311179;27;20229;-63
2024/04/15 06:12:21;;;;;;;0.30;0.30;;;14.30;99.90;;;;;;5312872;26;20284;-63
2024/04/15 06:14:47;;;;;;;0.40;0.40;;;14.30;99.90;;;;;;5312531;26;20218;-63
2024/04/15 06:17:12;;;;;;;0.37;0.37;;;14.30;99.90;;;;;;5312906;26;20234;-63
2024/04/15 06:19:39;;;;;;;0.30;0.30;;;14.30;99.90;;;;;;5312983;27;20252;-62
2024/04/15 06:22:05;;;;;;;0.30;0.30;;;14.30;99.90;;;;;;5304323;26;20238;-62
2024/04/15 06:24:30;;;;;;;0.50;0.50;;;14.20;99.90;;;;;;5312256;27;20521;-63
2024/04/15 06:26:57;;;;;;;0.30;0.30;;;14.30;99.90;;;;;;5310811;26;20254;-62
2024/04/15 06:29:24;;;;;;;0.30;0.30;;;14.30;99.90;;;;;;5278719;27;20574;-62
2024/04/15 06:31:50;;;;;;;0.30;0.30;;;14.30;99.90;;;;;;5278746;27;20514;-63
2024/04/15 06:34:19;;;;;;;0.30;0.30;;;14.30;99.90;;;;;;5278773;27;20458;-61
2024/04/15 06:36:45;;;;;;;0.30;0.30;;;14.30;99.90;;;;;;5276389;27;20858;-61
2024/04/15 06:39:11;;;;;;;0.30;0.30;;;14.30;99.90;;;;;;5278767;27;20522;-62
2024/04/15 06:41:37;;;;;;;0.30;0.30;;;14.30;99.90;;;;;;5278638;27;20837;-62
2024/04/15 06:44:02;;;;;;;0.30;0.30;;;14.30;99.90;;;;;;5278738;27;20226;-62
2024/04/15 06:46:29;;;;;;;0.37;0.37;;;14.20;99.90;;;;;;5280298;27;20230;-62
2024/04/15 06:48:54;;;;;;;0.30;0.30;;;14.20;99.90;;;;;;5278538;27;20235;-61
2024/04/15 06:51:22;;;;;;;0.30;0.30;;;14.20;99.90;;;;;;5278437;27;20911;-61
2024/04/15 06:53:48;;;;;;;0.30;0.30;;;14.20;99.90;;;;;;5278266;27;20572;-61
2024/04/15 06:56:13;;;;;;;0.30;0.30;;;14.30;99.90;;;;;;5277900;27;20458;-62
2024/04/15 06:58:39;;;;;;;0.67;0.50;;;14.30;99.90;;;;;;5278313;27;20592;-62
2024/04/15 07:01:05;;;;;;;0.30;0.30;;;14.30;99.90;;;;;;5277419;27;20228;-62
2024/04/15 07:03:30;;;;;;;0.30;0.30;;;14.20;99.90;;;;;;5278299;27;20811;-61
2024/04/15 07:05:56;;;;;;;0.30;0.30;;;14.20;99.90;;;;;;5277394;27;20244;-61
2024/04/15 07:08:22;;;;;;;0.40;0.40;;;14.20;99.90;;;;;;5278309;27;20218;-62
2024/04/15 07:10:47;;;;;;;0.30;0.30;;;14.20;99.90;;;;;;5277920;27;20262;-62
2024/04/15 07:13:13;;;;;;;0.30;0.30;;;14.20;99.90;;;;;;5277605;27;20422;-62
2024/04/15 07:15:38;;;;;;;0.30;0.30;;;14.30;99.90;;;;;;5279160;26;20253;-62
2024/04/15 07:18:04;;;;;;;0.30;0.30;;;14.30;99.90;;;;;;5293318;27;20230;-62
2024/04/15 07:20:30;;;;;;;0.40;0.40;;;14.30;99.90;;;;;;5312204;27;20219;-62
2024/04/15 07:22:56;;;;;;;0.30;0.30;;;14.30;99.90;;;;;;5290205;27;20294;-63
2024/04/15 07:25:21;;;;;;;0.30;0.30;;;14.30;99.90;;;;;;5277686;27;20223;-63
2024/04/15 07:27:47;;;;;;;0.30;0.30;;;14.30;99.90;;;;;;5277997;27;20538;-62
2024/04/15 07:30:12;;;;;;;0.30;0.30;;;14.30;99.90;;;;;;5277711;27;20261;-64
2024/04/15 07:32:38;;;;;;;0.40;0.40;;;14.30;99.90;;;;;;5277651;27;20601;-63
2024/04/15 07:35:05;;;;;;;0.30;0.30;;;14.30;99.90;;;;;;5298609;27;20773;-64
2024/04/15 07:37:30;;;;;;;0.30;0.30;;;14.30;99.90;;;;;;5312005;26;20324;-63
2024/04/15 07:39:56;;;;;;;0.30;0.30;;;14.30;99.90;;;;;;5309987;27;20469;-62
2024/04/15 07:42:22;;;;;;;0.30;0.30;;;14.30;99.90;;;;;;5311613;27;20689;-63
2024/04/15 07:44:48;;;;;;;0.33;0.33;;;14.40;99.90;;;;;;5310793;27;20740;-60
2024/04/15 07:47:14;;;;;;;0.40;0.40;;;14.50;99.90;;;;;;5311428;26;20603;-61
2024/04/15 07:49:40;;;;;;;0.30;0.30;;;14.50;99.90;;;;;;5311702;27;20433;-62
2024/04/15 07:52:06;;;;;;;0.30;0.30;;;14.50;99.90;;;;;;5311651;27;20520;-64
2024/04/15 07:54:32;;;;;;;0.40;0.40;;;14.60;99.90;;;;;;5311301;27;20302;-63
2024/04/15 07:56:58;;;;;;;0.30;0.30;;;14.60;99.90;;;;;;5311010;26;20233;-63
2024/04/15 07:59:24;;;;;;;0.33;0.33;;;14.60;99.90;;;;;;5311225;27;20474;-63
2024/04/15 08:01:49;;;;;;;0.30;0.30;;;14.60;99.90;;;;;;5311212;26;20789;-63
2024/04/15 08:04:15;;;;;;;0.30;0.30;;;14.60;99.90;;;;;;5311041;27;20223;-62
2024/04/15 08:06:41;;;;;;;0.30;0.20;;;14.60;99.90;;;;;;5308918;26;20234;-62
2024/04/15 08:09:07;;;;;;;0.30;0.30;;;14.60;99.90;;;;;;5309569;27;21022;-62
2024/04/15 08:11:33;;;;;;;0.30;0.30;;;14.70;99.90;;;;;;5290152;27;20237;-62
2024/04/15 08:14:00;;;;;;;0.30;0.30;;;14.70;99.90;;;;;;5277114;27;20228;-62
2024/04/15 08:16:25;;;;;;;0.30;0.30;;;14.70;99.90;;;;;;5275893;27;20525;-61
2024/04/15 08:18:51;;;;;;;0.30;0.30;;;14.70;99.90;;;;;;5276800;27;20450;-62
2024/04/15 08:21:16;;;;;;;0.30;0.30;;;14.70;99.90;;;;;;5277414;27;20266;-62
2024/04/15 08:23:42;;;;;;;0.30;0.30;;;14.80;99.90;;;;;;5277089;27;20326;-61
2024/04/15 08:26:08;;;;;;;0.30;0.30;;;14.80;99.90;;;;;;5299259;26;20262;-62
2024/04/15 08:28:33;;;;;;;0.30;0.30;;;14.90;99.90;;;;;;5314102;27;20270;-62
2024/04/15 08:30:59;;;;;;;0.40;0.40;;;14.90;99.90;;;;;;5314171;27;20223;-62
2024/04/15 08:33:25;;;;;;;1.23;0.50;;;15.00;99.90;;;;;;5313467;27;20243;-62
2024/04/15 08:35:51;;;;;;;0.30;0.30;;;15.00;99.90;;;;;;5313485;26;20232;-62
2024/04/15 08:38:16;;;;;;;0.30;0.30;;;15.10;99.90;;;;;;5314074;27;20236;-62
2024/04/15 08:40:53;;;;;;;0.30;0.30;;;15.10;99.90;;;;;;5290322;26;20346;-62
2024/04/15 08:43:24;;;;;;;0.30;0.30;;;15.20;99.90;;;;;;5280037;27;20780;-62
2024/04/15 08:45:57;;;;;;;0.30;0.27;;;15.30;99.90;;;;;;5279877;27;20457;-61
2024/04/15 08:48:24;;;;;;;0.30;0.30;;;15.40;99.90;;;;;;5280110;27;20426;-62
2024/04/15 08:50:57;;;;;;;0.30;0.30;;;15.40;99.90;;;;;;5280049;27;20792;-62
2024/04/15 08:53:23;;;;;;;0.30;0.30;;;15.50;99.90;;;;;;5300331;27;20504;-61
2024/04/15 08:55:49;;;;;;;0.30;0.30;;;15.60;99.90;;;;;;5310601;26;20479;-63
2024/04/15 08:58:16;;;;;;;0.30;0.30;;;15.50;99.90;;;;;;5295773;27;20527;-62
2024/04/15 09:00:44;;;;;;;0.30;0.30;;;15.60;99.90;;;;;;5300618;27;20846;-61
2024/04/15 09:03:11;;;;;;;0.30;0.30;;;15.70;99.90;;;;;;5281118;26;20466;-62
2024/04/15 09:05:36;;;;;;;0.30;0.30;;;16.00;99.90;;;;;;5292077;27;20488;-62
2024/04/15 09:08:02;;;;;;;0.30;0.30;;;16.30;99.90;;;;;;5279532;27;20466;-62
2024/04/15 09:10:28;;;;;;;0.30;0.30;;;16.40;99.90;;;;;;5300392;27;20892;-62
2024/04/15 09:12:56;;;;;;;0.53;0.53;;;16.70;99.90;;;;;;5279172;27;20964;-62
2024/04/15 09:15:22;;;;;;;0.30;0.20;;;16.90;99.90;;;;;;5305405;26;20226;-62
2024/04/15 09:17:49;;;;;;;0.30;0.30;;;17.10;99.90;;;;;;5313734;27;20529;-62
2024/04/15 09:20:19;;;;;;;0.30;0.30;;;17.30;99.90;;;;;;5287746;26;20266;-62
2024/04/15 09:22:45;;;;;;;0.37;0.37;;;17.50;99.90;;;;;;5279195;27;20474;-59
2024/04/15 09:25:11;;;;;;;0.40;0.40;;;17.60;99.90;;;;;;5283631;27;20923;-62
2024/04/15 09:27:37;;;;;;;0.30;0.30;;;17.90;99.90;;;;;;5312175;26;20498;-62
2024/04/15 09:30:04;;;;;;;0.67;0.67;;;18.20;99.90;;;;;;5310832;27;20503;-60
2024/04/15 09:32:30;;;;;;;0.30;0.27;;;18.40;99.90;;;;;;5311369;26;20758;-65
2024/04/15 09:35:01;;;;;;;0.30;0.20;;;18.60;99.90;;;;;;5293896;27;20454;-61
2024/04/15 09:37:27;;;;;;;0.40;0.40;;;18.70;99.90;;;;;;5296861;26;21011;-60
2024/04/15 09:39:53;;;;;;;0.30;0.30;;;18.90;99.90;;;;;;5279095;27;20574;-62
2024/04/15 09:42:19;;;;;;;0.40;0.40;;;19.50;99.90;;;;;;5305689;27;20473;-61
2024/04/15 09:44:47;;;;;;;0.30;0.30;;;20.50;99.90;;;;;;5310665;27;20232;-64
2024/04/15 09:47:13;;;;;;;0.30;0.30;;;21.60;99.90;;;;;;5280955;26;20474;-61
2024/04/15 09:49:39;;;;;;;0.30;0.30;;;22.50;98.40;;;;;;5278695;27;20458;-61
2024/04/15 09:52:07;;;;;;;0.40;0.37;;;22.70;95.30;;;;;;5278861;27;20558;-62
2024/04/15 09:54:34;;;;;;;0.40;0.40;;;22.40;96.20;;;;;;5297269;27;20428;-62
2024/04/15 09:57:20;;;;;;;0.30;0.30;;;22.00;96.40;;;;;;5304394;26;20481;-61
2024/04/15 09:59:54;;;;;;;0.30;0.30;;;21.70;96.40;;;;;;5293689;27;20531;-63
2024/04/15 10:02:37;;;;;;;0.30;0.30;;;21.50;96.80;;;;;;5313111;27;20468;-63
2024/04/15 10:05:15;;;;;;;0.40;0.40;;;21.10;96.60;;;;;;5313187;27;20844;-62
2024/04/15 10:07:43;;;;;;;0.30;0.30;;;20.80;97.10;;;;;;5293159;27;20462;-62
2024/04/15 10:10:09;;;;;;;0.30;0.30;;;20.30;97.60;;;;;;5277001;27;20497;-63
2024/04/15 10:12:36;;;;;;;0.30;0.30;;;19.90;98.30;;;;;;5278481;27;20562;-63
2024/04/15 10:15:02;;;;;;;0.40;0.40;;;19.50;98.80;;;;;;5278149;27;20749;-62
2024/04/15 10:17:27;;;;;;;0.30;0.20;;;19.20;99.40;;;;;;5278113;27;20440;-63
2024/04/15 10:19:53;;;;;;;0.50;0.50;;;19.00;99.90;;;;;;5276593;27;20507;-63
2024/04/15 10:22:22;;;;;;;0.30;0.30;;;19.00;99.90;;;;;;5275575;27;20873;-63
2024/04/15 10:24:48;;;;;;;0.30;0.30;;;19.10;99.80;;;;;;5275944;27;20318;-63
2024/04/15 10:27:13;;;;;;;0.30;0.30;;;19.50;99.90;;;;;;5281541;27;20487;-63
2024/04/15 10:29:40;;;;;;;0.30;0.30;;;19.90;99.90;;;;;;5276334;27;20265;-63
2024/04/15 10:32:07;;;;;;;0.30;0.30;;;20.30;99.50;;;;;;5276175;27;20707;-63
2024/04/15 10:34:40;;;;;;;0.30;0.30;;;20.60;98.60;;;;;;5277161;27;20426;-64
2024/04/15 10:37:10;;;;;;;0.30;0.30;;;20.60;97.70;;;;;;5276238;27;20511;-63
2024/04/15 10:39:44;;;;;;;0.30;0.30;;;20.50;97.60;;;;;;5283205;27;20507;-63
2024/04/15 10:42:09;;;;;;;0.30;0.30;;;20.20;97.40;;;;;;5309827;27;20856;-63
2024/04/15 10:44:35;;;;;;;0.30;0.30;;;19.70;97.70;;;;;;5309418;27;20435;-63
2024/04/15 10:47:01;;;;;;;0.40;0.40;;;19.60;98.00;;;;;;5309660;26;20276;-63
2024/04/15 10:49:28;;;;;;;0.30;0.20;;;19.50;99.00;;;;;;5308662;27;20858;-62
2024/04/15 10:51:54;;;;;;;0.30;0.30;;;19.30;98.60;;;;;;5311040;27;20681;-62
2024/04/15 10:54:20;;;;;;;0.30;0.30;;;19.20;98.90;;;;;;5304434;27;20472;-62
2024/04/15 10:56:47;;;;;;;0.40;0.40;;;19.10;98.90;;;;;;5277913;27;20523;-63
2024/04/15 10:59:16;;;;;;;0.40;0.40;;;19.00;99.30;;;;;;5278550;27;20257;-62
2024/04/15 11:01:47;;;;;;;0.30;0.30;;;18.90;99.00;;;;;;5278582;27;20417;-63
2024/04/15 11:04:13;;;;;;;0.30;0.20;;;18.80;98.90;;;;;;5278454;27;20498;-62
2024/04/15 11:06:39;;;;;;;0.40;0.30;;;18.70;99.20;;;;;;5277851;27;20466;-62
2024/04/15 11:09:05;;;;;;;0.30;0.20;;;18.80;99.80;;;;;;5292635;27;20281;-62
2024/04/15 11:11:32;;;;;;;0.30;0.30;;;18.80;99.90;;;;;;5312226;26;20465;-63
2024/04/15 11:13:58;;;;;;;0.30;0.20;;;18.90;99.80;;;;;;5312444;27;20273;-63
2024/04/15 11:16:27;;;;;;;0.30;0.30;;;18.90;99.30;;;;;;5293502;27;21000;-62
2024/04/15 11:18:52;;;;;;;0.30;0.30;;;18.80;98.80;;;;;;5279011;27;20261;-63
2024/04/15 11:21:18;;;;;;;0.40;0.40;;;18.90;99.90;;;;;;5278105;27;20781;-63
2024/04/15 11:23:45;;;;;;;0.30;0.30;;;19.00;99.10;;;;;;5278154;27;20261;-62
2024/04/15 11:26:13;;;;;;;0.30;0.30;;;19.00;98.30;;;;;;5277493;27;20247;-63
2024/04/15 11:28:40;;;;;;;0.30;0.30;;;19.10;98.10;;;;;;5278181;27;20924;-63
2024/04/15 11:31:06;;;;;;;0.50;0.50;;;19.00;97.80;;;;;;5300780;27;21088;-62
2024/04/15 11:33:32;;;;;;;0.70;0.70;;;18.80;98.70;;;;;;5313202;27;20480;-62
2024/04/15 11:35:58;;;;;;;0.47;0.47;;;18.70;99.20;;;;;;5311703;26;20444;-63
2024/04/15 11:38:26;;;;;;;0.30;0.30;;;18.70;98.50;;;;;;5311938;27;20258;-63
2024/04/15 11:40:52;;;;;;;0.30;0.30;;;18.70;98.20;;;;;;5311651;27;20234;-62
2024/04/15 11:43:19;;;;;;;0.30;0.30;;;18.60;98.80;;;;;;5311883;27;20539;-62
2024/04/15 11:45:55;;;;;;;0.40;0.33;;;18.70;98.60;;;;;;5289194;26;20990;-62
2024/04/15 11:48:26;;;;;;;0.30;0.30;;;18.60;98.00;;;;;;5277642;27;20504;-62
2024/04/15 11:50:55;;;;;;;0.40;0.40;;;18.60;97.80;;;;;;5277787;27;20546;-62
2024/04/15 11:53:24;;;;;;;0.30;0.30;;;18.50;97.70;;;;;;5277755;27;20495;-62
2024/04/15 11:55:56;;;;;;;0.40;0.40;;;18.30;98.20;;;;;;5277653;27;20467;-63
2024/04/15 11:58:22;;;;;;;0.30;0.30;;;18.20;98.90;;;;;;5277734;27;20502;-62
2024/04/15 12:00:48;;;;;;;0.30;0.20;;;18.10;98.80;;;;;;5312042;27;20779;-62
2024/04/15 12:03:13;;;;;;;0.30;0.30;;;18.10;98.90;;;;;;5314681;27;20425;-62
2024/04/15 12:05:40;;;;;;;0.30;0.20;;;18.00;99.50;;;;;;5314171;26;20269;-63
2024/04/15 12:08:07;;;;;;;0.30;0.30;;;17.90;99.40;;;;;;5314893;27;20853;-62
2024/04/15 12:10:34;;;;;;;0.30;0.30;;;17.80;99.90;;;;;;5314765;27;20492;-63
2024/04/15 12:13:00;;;;;;;0.30;0.30;;;17.80;99.90;;;;;;5314933;27;20452;-62
2024/04/15 12:15:26;;;;;;;0.30;0.30;;;17.70;99.90;;;;;;5282530;27;20570;-64
2024/04/15 12:17:51;;;;;;;0.30;0.30;;;17.80;99.90;;;;;;5280614;27;20976;-63
2024/04/15 12:20:18;;;;;;;0.30;0.30;;;18.00;99.90;;;;;;5280218;27;20269;-62
2024/04/15 12:22:44;;;;;;;0.30;0.30;;;18.10;99.90;;;;;;5280553;27;20568;-63
2024/04/15 12:25:09;;;;;;;0.30;0.27;;;18.10;99.90;;;;;;5280215;27;20418;-64
2024/04/15 12:27:36;;;;;;;0.30;0.30;;;18.10;99.90;;;;;;5281705;27;20231;-62
2024/04/15 12:30:04;;;;;;;0.30;0.30;;;18.10;99.90;;;;;;5313819;26;20281;-63
2024/04/15 12:32:29;;;;;;;0.30;0.20;;;18.10;99.90;;;;;;5313820;27;20452;-62
2024/04/15 12:34:55;;;;;;;0.30;0.30;;;18.20;99.90;;;;;;5313460;26;20436;-63
2024/04/15 12:37:20;;;;;;;0.30;0.30;;;18.20;99.90;;;;;;5312328;26;20239;-62
2024/04/15 12:39:47;;;;;;;0.30;0.30;;;18.30;99.90;;;;;;5303048;27;20779;-63
2024/04/15 12:42:12;;;;;;;0.30;0.30;;;18.40;99.90;;;;;;5278269;27;20309;-62
2024/04/15 12:44:38;;;;;;;0.30;0.30;;;18.40;99.90;;;;;;5279493;27;20777;-63
2024/04/15 12:47:04;;;;;;;0.30;0.20;;;18.40;99.90;;;;;;5279811;27;20235;-62
2024/04/15 12:49:29;;;;;;;0.30;0.30;;;18.40;99.90;;;;;;5279668;27;20247;-62
2024/04/15 12:51:55;;;;;;;0.30;0.30;;;18.40;99.90;;;;;;5280209;27;20219;-62
2024/04/15 12:54:21;;;;;;;0.33;0.33;;;18.30;99.90;;;;;;5288772;27;20245;-62
2024/04/15 12:56:46;;;;;;;0.50;0.50;;;18.20;99.90;;;;;;5310490;26;20770;-62
2024/04/15 12:59:12;;;;;;;0.37;0.37;;;18.00;99.90;;;;;;5311756;27;20282;-62
2024/04/15 13:01:37;;;;;;;0.30;0.30;;;17.70;99.90;;;;;;5314071;27;20257;-62
2024/04/15 13:04:04;;;;;;;0.30;0.30;;;17.70;99.90;;;;;;5313064;27;20234;-63
2024/04/15 13:06:30;;;;;;;0.30;0.30;;;17.70;99.90;;;;;;5313173;26;20226;-64
2024/04/15 13:08:56;;;;;;;0.30;0.20;;;17.80;99.90;;;;;;5287293;27;20495;-63
2024/04/15 13:11:21;;;;;;;0.30;0.30;;;17.90;99.90;;;;;;5279248;27;20223;-64
2024/04/15 13:13:47;;;;;;;0.30;0.30;;;18.00;99.90;;;;;;5279958;27;20502;-65
2024/04/15 13:16:12;;;;;;;0.30;0.30;;;18.10;99.90;;;;;;5279171;27;20264;-61
2024/04/15 13:18:38;;;;;;;0.37;0.37;;;18.20;99.90;;;;;;5277872;27;20227;-63
2024/04/15 13:21:06;;;;;;;0.30;0.30;;;18.30;99.90;;;;;;5279820;27;20294;-62
2024/04/15 13:23:32;;;;;;;0.30;0.30;;;18.50;99.90;;;;;;5310568;27;20272;-63
2024/04/15 13:25:57;;;;;;;0.33;0.33;;;18.70;99.90;;;;;;5313411;26;20460;-65
2024/04/15 13:28:23;;;;;;;0.40;0.40;;;19.00;99.90;;;;;;5313677;27;20227;-65
2024/04/15 13:30:50;;;;;;;0.30;0.30;;;19.20;99.90;;;;;;5313824;27;20215;-62
2024/04/15 13:33:16;;;;;;;0.40;0.33;;;19.30;99.90;;;;;;5309126;27;20234;-62
2024/04/15 13:35:41;;;;;;;0.30;0.20;;;19.50;99.90;;;;;;5298200;27;20564;-61
2024/04/15 13:38:07;;;;;;;0.30;0.20;;;19.60;99.90;;;;;;5279468;27;20236;-61
2024/04/15 13:40:32;;;;;;;0.30;0.27;;;19.60;99.80;;;;;;5288210;27;20726;-62
2024/04/15 13:42:58;;;;;;;0.30;0.30;;;19.70;99.40;;;;;;5288316;27;20290;-62
2024/04/15 13:45:24;;;;;;;0.30;0.30;;;19.70;98.50;;;;;;5281090;27;20282;-62
2024/04/15 13:47:49;;;;;;;0.30;0.30;;;19.70;98.10;;;;;;5278781;27;20231;-62
2024/04/15 13:50:15;;;;;;;0.30;0.20;;;19.60;98.00;;;;;;5279169;27;20313;-62
2024/04/15 13:52:41;;;;;;;0.30;0.30;;;19.70;97.50;;;;;;5280452;27;20239;-61
2024/04/15 13:55:07;;;;;;;0.30;0.30;;;19.80;96.70;;;;;;5275616;27;20253;-63
2024/04/15 13:57:34;;;;;;;0.40;0.40;;;19.90;97.00;;;;;;5275746;27;20234;-64
2024/04/15 13:59:59;;;;;;;0.30;0.30;;;19.90;97.90;;;;;;5276182;27;20454;-63
2024/04/15 14:02:25;;;;;;;0.30;0.30;;;19.90;97.10;;;;;;5276504;27;20491;-63
2024/04/15 14:04:50;;;;;;;0.30;0.30;;;19.90;97.10;;;;;;5275839;27;20253;-63
2024/04/15 14:07:16;;;;;;;0.30;0.20;;;20.00;96.50;;;;;;5276782;27;20241;-62
2024/04/15 14:09:42;;;;;;;0.30;0.20;;;20.00;96.60;;;;;;5311880;27;20684;-62
2024/04/15 14:12:08;;;;;;;0.40;0.40;;;20.00;97.20;;;;;;5313166;27;20232;-62
2024/04/15 14:14:33;;;;;;;0.37;0.27;;;20.00;96.70;;;;;;5312633;27;20223;-62
2024/04/15 14:16:59;;;;;;;0.30;0.20;;;19.90;96.40;;;;;;5311574;26;20464;-64
2024/04/15 14:19:25;;;;;;;0.60;0.60;;;19.80;96.40;;;;;;5277365;27;20701;-63
2024/04/15 14:21:50;;;;;;;0.50;0.43;;;19.80;95.20;;;;;;5278292;27;20265;-63
2024/04/15 14:24:16;;;;;;;0.40;0.40;;;19.80;93.90;;;;;;5277973;27;20810;-62
2024/04/15 14:26:42;;;;;;;0.30;0.30;;;19.70;94.20;;;;;;5276768;27;20242;-62
2024/04/15 14:29:08;;;;;;;0.30;0.30;;;19.70;93.60;;;;;;5278542;27;20273;-62
2024/04/15 14:31:34;;;;;;;0.30;0.20;;;19.70;93.00;;;;;;5303001;27;20380;-61
2024/04/15 14:33:59;;;;;;;0.30;0.30;;;19.70;91.30;;;;;;5312968;27;20487;-62
2024/04/15 14:36:25;;;;;;;0.30;0.30;;;19.70;92.40;;;;;;5312750;26;20235;-62
2024/04/15 14:38:50;;;;;;;0.30;0.20;;;19.70;90.80;;;;;;5312895;27;20229;-62
2024/04/15 14:41:16;;;;;;;0.30;0.30;;;19.80;91.10;;;;;;5312882;27;20260;-63
2024/04/15 14:43:42;;;;;;;0.30;0.20;;;19.80;91.30;;;;;;5312855;27;20717;-62
2024/04/15 14:46:07;;;;;;;0.40;0.40;;;19.80;90.80;;;;;;5289569;26;20243;-62
2024/04/15 14:48:33;;;;;;;0.30;0.30;;;19.90;91.00;;;;;;5278615;27;20611;-63
2024/04/15 14:50:59;;;;;;;0.30;0.30;;;20.00;90.50;;;;;;5278655;27;20227;-63
2024/04/15 14:53:25;;;;;;;0.30;0.30;;;20.10;89.80;;;;;;5279147;27;20227;-63
2024/04/15 14:55:52;;;;;;;0.30;0.30;;;20.00;89.10;;;;;;5278136;27;20231;-63
2024/04/15 14:58:18;;;;;;;0.30;0.30;;;19.90;86.50;;;;;;5278767;27;20789;-62
2024/04/15 15:00:45;;;;;;;0.33;0.33;;;19.80;86.20;;;;;;5298546;27;20469;-63
2024/04/15 15:03:11;;;;;;;0.30;0.30;;;19.60;86.40;;;;;;5312325;27;20233;-62
2024/04/15 15:05:36;;;;;;;0.30;0.30;;;19.50;86.40;;;;;;5312848;26;20417;-62
2024/04/15 15:08:02;;;;;;;0.30;0.20;;;19.50;87.40;;;;;;5312632;27;20260;-62
2024/04/15 15:10:28;;;;;;;0.37;0.37;;;19.40;89.40;;;;;;5312488;27;20257;-63
2024/04/15 15:12:56;;;;;;;0.30;0.27;;;19.40;89.10;;;;;;5312542;27;20320;-64
2024/04/15 15:15:21;;;;;;;0.30;0.30;;;19.30;88.10;;;;;;5292578;27;20261;-63
2024/04/15 15:17:47;;;;;;;0.30;0.30;;;19.30;88.50;;;;;;5278258;27;21028;-63
2024/04/15 15:20:13;;;;;;;0.40;0.40;;;19.30;88.60;;;;;;5279539;27;20324;-62
2024/04/15 15:22:39;;;;;;;0.30;0.27;;;19.20;88.90;;;;;;5311954;27;20893;-63
2024/04/15 15:25:06;;;;;;;0.40;0.40;;;19.10;88.70;;;;;;5311841;27;20223;-63
2024/04/15 15:27:31;;;;;;;0.33;0.33;;;19.10;89.60;;;;;;5312110;26;20230;-62
2024/04/15 15:29:57;;;;;;;0.47;0.47;;;19.00;88.10;;;;;;5312037;27;20540;-62
2024/04/15 15:32:23;;;;;;;0.30;0.30;;;19.00;86.70;;;;;;5312201;27;20262;-62
2024/04/15 15:34:48;;;;;;;0.30;0.30;;;19.00;86.00;;;;;;5310669;27;20448;-63
2024/04/15 15:37:14;;;;;;;0.30;0.20;;;18.90;85.30;;;;;;5278166;27;20281;-62
2024/04/15 15:39:40;;;;;;;0.40;0.30;;;18.70;84.40;;;;;;5278000;27;20685;-62
2024/04/15 15:42:06;;;;;;;0.30;0.30;;;18.60;85.40;;;;;;5278182;27;20278;-63
2024/04/15 15:44:31;;;;;;;0.30;0.30;;;18.50;85.10;;;;;;5276958;27;20219;-63
2024/04/15 15:46:57;;;;;;;0.30;0.30;;;18.40;84.70;;;;;;5277395;27;20932;-62
2024/04/15 15:49:23;;;;;;;0.30;0.30;;;18.30;85.10;;;;;;5295117;27;20222;-62
2024/04/15 15:52:02;;;;;;;0.53;0.30;;;18.20;86.10;;;;;;5311782;27;20457;-62
2024/04/15 15:54:28;;;;;;;0.30;0.30;;;18.10;86.00;;;;;;5311447;27;20233;-64
2024/04/15 15:56:57;;;;;;;0.30;0.30;;;18.00;86.40;;;;;;5311970;26;20537;-62
2024/04/15 15:59:23;;;;;;;0.40;0.40;;;17.90;85.40;;;;;;5311676;27;20421;-62
2024/04/15 16:01:48;;;;;;;0.30;0.30;;;17.90;84.70;;;;;;5311270;26;20501;-62
2024/04/15 16:04:15;;;;;;;0.50;0.50;;;17.90;85.70;;;;;;5291973;26;20984;-62
2024/04/15 16:06:42;;;;;;;0.40;0.40;;;17.90;86.60;;;;;;5276694;27;20231;-61
2024/04/15 16:09:08;;;;;;;0.30;0.30;;;17.80;85.30;;;;;;5277436;27;20516;-63
2024/04/15 16:11:35;;;;;;;0.80;0.50;;;17.80;86.10;;;;;;5277130;27;20458;-62
2024/04/15 16:14:02;;;;;;;0.30;0.30;;;17.80;86.30;;;;;;5277064;27;20470;-63
2024/04/15 16:16:28;;;;;;;0.30;0.30;;;17.70;86.30;;;;;;5277372;27;20522;-62
2024/04/15 16:18:53;;;;;;;0.40;0.40;;;17.70;86.90;;;;;;5277264;27;20442;-62
2024/04/15 16:21:19;;;;;;;0.30;0.30;;;17.60;84.70;;;;;;5304880;27;20289;-62
2024/04/15 16:23:44;;;;;;;0.30;0.30;;;17.60;85.10;;;;;;5304904;27;20266;-63
2024/04/15 16:26:10;;;;;;;0.30;0.30;;;17.50;84.80;;;;;;5276809;27;20235;-63
2024/04/15 16:28:36;;;;;;;0.40;0.40;;;17.40;85.40;;;;;;5276895;27;20643;-63
2024/04/15 16:31:04;;;;;;;1.13;1.13;;;17.30;85.30;;;;;;5275536;27;20230;-63
2024/04/15 16:33:29;;;;;;;0.30;0.30;;;17.30;85.20;;;;;;5276513;27;20518;-63
2024/04/15 16:35:57;;;;;;;0.30;0.20;;;17.20;86.50;;;;;;5282799;27;20473;-61
2024/04/15 16:38:23;;;;;;;0.30;0.30;;;17.20;88.20;;;;;;5303151;27;20230;-62
2024/04/15 16:40:49;;;;;;;0.30;0.20;;;17.10;88.90;;;;;;5293354;27;20614;-60
2024/04/15 16:43:14;;;;;;;0.30;0.30;;;17.10;89.10;;;;;;5310919;26;20569;-60
2024/04/15 16:45:40;;;;;;;0.50;0.50;;;17.00;88.40;;;;;;5310735;26;20232;-61
2024/04/15 16:48:06;;;;;;;0.50;0.50;;;16.90;89.90;;;;;;5314198;26;20532;-61
2024/04/15 16:50:33;;;;;;;0.30;0.30;;;16.80;88.70;;;;;;5315338;26;20264;-60
2024/04/15 16:52:59;;;;;;;0.30;0.30;;;16.70;88.60;;;;;;5314167;27;20224;-61